METAR Data
IDs: Format: Raw Decoded Include TAF

Data at: 0952 UTC 07 Dec 2022

EDDB 070920Z AUTO 28019KT 9999 SCT018 BKN024 OVC029 03/00 Q1009 TEMPO 28020G30KT

TAF AMD EDDB 070920Z 0709/0806 28015G25KT 9999 SCT012 BKN025
  BECMG 0713/0715 27011KT
  BECMG 0800/0803 BKN012
  PROB30
  TEMPO 0803/0806 4000 -SNRA BKN006


EDDF 070920Z AUTO 21006KT 9999 FEW032 05/02 Q1017 NOSIG

TAF EDDF 070500Z 0706/0812 23004KT 9999 SCT013 BKN015
  TEMPO 0711/0719 FEW015 SCT030
  TEMPO 0723/0810 2500 -DZ BR SCT003 BKN005


EDDM 070920Z AUTO 26007KT CAVOK 02/01 Q1016 NOSIG

TAF EDDM 070500Z 0706/0812 26007KT 9999 FEW025 OVC045
  BECMG 0720/0722 VRB02KT


EDDV 070920Z AUTO 27010KT 240V300 9999 BKN009 BKN019 03/02 Q1012 BECMG BKN012

TAF AMD EDDV 070634Z 0706/0806 28010KT 9999 SCT025
  TEMPO 0706/0709 BKN008
  PROB30
  TEMPO 0706/0721 3000 SHRAGS SCT008 BKN012CB
  PROB30
  TEMPO 0710/0715 30015G25KT
  TEMPO 0721/0806 2000 SHSN BKN007CB


EDDW 070920Z AUTO 27009KT 9999 -SHRA FEW008 BKN045 FEW///TCU 03/02 Q1013 TEMPO SHGSRA BKN012CB

TAF EDDW 070500Z 0706/0806 28010KT 9999 SCT025
  TEMPO 0706/0716 4000 SHRAGS BKN012CB
  PROB30
  TEMPO 0710/0716 30015G25KT
  TEMPO 0716/0720 3000 SHSNRA BKN007CB
  BECMG 0718/0720 OVC012
  PROB30
  TEMPO 0720/0806 2000 SHSN BKN007CB


EDDL 070920Z AUTO 26006KT 9999 FEW001 05/03 Q1017 NOSIG

TAF EDDL 070500Z 0706/0812 25006KT 8000 SCT010 BKN020
  TEMPO 0706/0709 BKN008
  PROB30
  TEMPO 0709/0711 BKN011
  PROB30
  TEMPO 0720/0803 BKN010
  BECMG 0803/0806 BKN008
  PROB30
  TEMPO 0806/0812 4000 RA BKN004


EDDK 070920Z AUTO 28004KT 9000 BKN007 05/04 Q1017 NOSIG

TAF EDDK 070500Z 0706/0812 27005KT 9999 BKN008
  PROB40
  TEMPO 0706/0709 3000 -RADZ BKN004
  BECMG 0709/0712 BKN015
  PROB30
  TEMPO 0712/0724 BKN012
  BECMG 0719/0722 21004KT
  BECMG 0800/0803 BKN010
  TEMPO 0806/0812 4000 RA BKN007


EDDS 070920Z AUTO 21004KT 150V250 CAVOK 03/M00 Q1017 NOSIG

TAF EDDS 070500Z 0706/0806 VRB03KT 9999 FEW015 BKN040
  BECMG 0709/0712 29006KT
  TEMPO 0710/0716 4500 -DZRA BKN008
  BECMG 0716/0718 23004KT
  TEMPO 0801/0806 0600 FZFG VV001


EDDC 070920Z AUTO 26009KT 230V290 9999 BKN011 OVC019 03/01 Q1011 BECMG BKN015

TAF AMD EDDC 070605Z 0706/0806 22008KT 9999 BKN008
  TEMPO 0706/0708 2000 SHSN BKN004
  BECMG 0708/0710 BKN015
  TEMPO 0710/0716 28015G25KT 2000 -SHSNRA BKN004CB
  BECMG 0720/0723 26003KT


EDVE 070920Z 28010KT 9999 OVC008 03/02 Q1012

TAF EDVE 070800Z 0709/0718 28010KT 9999 SCT020
  TEMPO 0709/0710 BKN008
  PROB30
  TEMPO 0709/0718 3000 SHRAGS SCT008 BKN012CB